Time;durP1;ratioP1;P1;durP2;ratioP2;P2;SDS_P1;SDS_P2;PMS_P1;PMS_P2;Temp;Humidity;BMP_temperature;BMP_pressure;BME280_temperature;BME280_humidity;BME280_pressure;Samples;Min_cycle;Max_cycle;Signal;HPM_P1;HPM_P2
2023/03/02 00:01:27;;;;;;;12.90;5.45;;;4.40;99.90;;;;;;5015992;28;20052;-68
2023/03/02 00:03:57;;;;;;;12.68;5.82;;;4.50;99.90;;;;;;5016591;28;20033;-68
2023/03/02 00:06:24;;;;;;;12.48;5.55;;;4.30;99.90;;;;;;5017867;28;20080;-68
2023/03/02 00:08:49;;;;;;;14.48;5.13;;;4.20;99.90;;;;;;5034352;28;20056;-68
2023/03/02 00:11:15;;;;;;;11.43;5.03;;;4.20;99.90;;;;;;5016433;28;20033;-68
2023/03/02 00:13:42;;;;;;;13.82;5.60;;;4.00;99.90;;;;;;5017311;28;20036;-68
2023/03/02 00:16:07;;;;;;;11.23;4.65;;;4.20;99.90;;;;;;5034025;28;20057;-68
2023/03/02 00:18:33;;;;;;;13.52;5.00;;;4.00;99.90;;;;;;5034207;28;20064;-68
2023/03/02 00:20:58;;;;;;;9.98;4.88;;;3.90;99.90;;;;;;5034016;28;20025;-68
2023/03/02 00:23:24;;;;;;;13.30;5.30;;;4.00;99.90;;;;;;5034185;28;20025;-68
2023/03/02 00:25:50;;;;;;;11.80;5.35;;;4.10;99.90;;;;;;5033872;28;20070;-68
2023/03/02 00:28:15;;;;;;;13.10;5.22;;;4.10;99.90;;;;;;5034063;28;20063;-68
2023/03/02 00:30:41;;;;;;;19.42;6.55;;;4.00;99.90;;;;;;5034231;28;20095;-69
2023/03/02 00:33:06;;;;;;;12.00;5.00;;;3.80;99.90;;;;;;5034122;28;20021;-69
2023/03/02 00:35:39;;;;;;;11.02;5.85;;;3.90;99.90;;;;;;5016753;28;20093;-69
2023/03/02 00:38:06;;;;;;;15.00;5.50;;;4.00;99.90;;;;;;5015961;28;20028;-69
2023/03/02 00:40:33;;;;;;;8.70;4.65;;;4.00;99.90;;;;;;5016293;28;20099;-69
2023/03/02 00:42:59;;;;;;;10.02;4.85;;;4.10;99.90;;;;;;5015957;28;20029;-69
2023/03/02 00:45:24;;;;;;;10.38;4.85;;;4.00;99.90;;;;;;5033539;28;20091;-69
2023/03/02 00:47:50;;;;;;;10.63;4.40;;;4.00;99.90;;;;;;5015933;28;20029;-69
2023/03/02 00:50:15;;;;;;;16.30;5.65;;;4.00;99.90;;;;;;5016111;28;20029;-69
2023/03/02 00:52:41;;;;;;;13.00;5.05;;;4.10;99.90;;;;;;5016953;28;20104;-69
2023/03/02 00:55:08;;;;;;;14.48;5.25;;;4.00;99.90;;;;;;5016211;28;20018;-69
2023/03/02 00:57:34;;;;;;;9.73;4.63;;;4.00;99.90;;;;;;5033343;28;20047;-69
2023/03/02 00:59:59;;;;;;;12.10;4.78;;;4.00;99.90;;;;;;5033413;28;20057;-69
2023/03/02 01:02:42;;;;;;;13.82;5.47;;;4.00;99.90;;;;;;5033384;28;20021;-69
2023/03/02 01:05:08;;;;;;;11.73;5.03;;;4.00;99.90;;;;;;5033415;28;20028;-69
2023/03/02 01:07:33;;;;;;;9.07;4.70;;;4.00;99.90;;;;;;5033182;28;20033;-69
2023/03/02 01:09:59;;;;;;;14.07;6.15;;;3.90;99.90;;;;;;5033331;28;20021;-69
2023/03/02 01:12:24;;;;;;;11.00;4.93;;;3.90;99.90;;;;;;5016304;28;20025;-69
2023/03/02 01:14:50;;;;;;;11.57;5.25;;;3.90;99.90;;;;;;5016441;28;20105;-69
2023/03/02 01:17:15;;;;;;;11.77;5.00;;;3.90;99.90;;;;;;5033213;28;20393;-68
2023/03/02 01:19:41;;;;;;;11.98;5.30;;;3.90;99.90;;;;;;5033526;28;20041;-69
2023/03/02 01:22:08;;;;;;;10.48;4.78;;;3.90;99.90;;;;;;5033302;28;20026;-69
2023/03/02 01:24:33;;;;;;;12.88;5.55;;;3.80;99.90;;;;;;5015508;28;20117;-69
2023/03/02 01:26:59;;;;;;;12.40;5.00;;;3.80;99.90;;;;;;5015656;28;20099;-69
2023/03/02 01:29:25;;;;;;;13.65;5.30;;;3.80;99.90;;;;;;5033046;28;20033;-69
2023/03/02 01:31:50;;;;;;;10.63;4.72;;;3.80;99.90;;;;;;5017028;28;20088;-68
2023/03/02 01:34:16;;;;;;;10.45;5.25;;;3.80;99.90;;;;;;5033462;28;20032;-69
2023/03/02 01:36:44;;;;;;;8.57;4.47;;;3.80;99.90;;;;;;5033113;28;20017;-69
2023/03/02 01:39:14;;;;;;;11.02;4.82;;;3.90;99.90;;;;;;5033162;28;20040;-69
2023/03/02 01:45:01;;;;;;;10.10;4.95;;;3.90;99.90;;;;;;5033227;28;20152;-69
2023/03/02 01:47:32;;;;;;;14.63;5.40;;;3.90;99.90;;;;;;5032938;28;20079;-69
2023/03/02 01:50:02;;;;;;;13.50;4.82;;;3.90;99.90;;;;;;5031754;28;20025;-69
2023/03/02 01:52:30;;;;;;;9.82;4.95;;;3.80;99.90;;;;;;5015366;28;20025;-69
2023/03/02 01:54:59;;;;;;;12.98;5.95;;;3.80;99.90;;;;;;5015582;28;20022;-69
2023/03/02 01:57:31;;;;;;;12.20;5.53;;;3.80;99.90;;;;;;5015212;28;20021;-69
2023/03/02 02:00:05;;;;;;;12.70;4.93;;;3.80;99.90;;;;;;5033209;28;20044;-69
2023/03/02 02:02:31;;;;;;;9.48;4.72;;;3.80;99.90;;;;;;5032858;28;20076;-69
2023/03/02 02:04:57;;;;;;;11.27;5.00;;;3.80;99.90;;;;;;5032770;28;20033;-69
2023/03/02 02:07:23;;;;;;;12.93;4.80;;;3.80;99.90;;;;;;5032805;28;20057;-69
2023/03/02 02:09:51;;;;;;;14.85;5.57;;;3.80;99.90;;;;;;5032658;28;20032;-69
2023/03/02 02:12:20;;;;;;;11.25;5.38;;;3.80;99.90;;;;;;5015905;28;20029;-69
2023/03/02 02:14:46;;;;;;;13.23;5.32;;;3.80;99.90;;;;;;5032974;28;20025;-69
2023/03/02 02:17:13;;;;;;;12.90;5.13;;;3.80;99.90;;;;;;5014938;28;20021;-68
2023/03/02 02:20:01;;;;;;;11.57;5.40;;;3.80;99.90;;;;;;5032892;28;20477;-69
2023/03/02 02:22:46;;;;;;;14.35;5.65;;;3.80;99.90;;;;;;5032710;28;20083;-69
2023/03/02 02:25:46;;;;;;;13.80;5.93;;;3.80;99.90;;;;;;5017076;28;20040;-69
2023/03/02 02:28:18;;;;;;;12.50;5.85;;;3.70;99.90;;;;;;5036124;28;20021;-69
2023/03/02 02:30:46;;;;;;;12.90;5.75;;;3.60;99.90;;;;;;5036103;28;20022;-69
2023/03/02 02:33:17;;;;;;;11.77;5.10;;;3.60;99.90;;;;;;5018389;28;20041;-69
2023/03/02 02:35:46;;;;;;;9.70;5.25;;;3.60;99.90;;;;;;5036299;28;20484;-69
2023/03/02 02:38:14;;;;;;;15.25;5.70;;;3.40;99.90;;;;;;5034692;28;20033;-69
2023/03/02 02:40:58;;;;;;;11.77;5.30;;;3.40;99.90;;;;;;5036167;28;20025;-69
2023/03/02 02:43:26;;;;;;;12.50;5.25;;;3.50;99.90;;;;;;5018475;28;20025;-69
2023/03/02 02:45:55;;;;;;;13.30;5.82;;;3.50;99.90;;;;;;5018311;28;20068;-69
2023/03/02 02:48:24;;;;;;;11.98;5.43;;;3.50;99.90;;;;;;5035648;28;20029;-68
2023/03/02 02:50:59;;;;;;;17.58;5.97;;;3.50;99.90;;;;;;5035662;28;20026;-69
2023/03/02 02:53:44;;;;;;;12.43;5.50;;;3.50;99.90;;;;;;5017944;28;20072;-69
2023/03/02 02:56:12;;;;;;;11.77;5.18;;;3.50;99.90;;;;;;5007480;28;20036;-69
2023/03/02 02:58:45;;;;;;;13.55;6.78;;;3.50;99.90;;;;;;5017769;28;20025;-69
2023/03/02 03:01:16;;;;;;;10.82;5.10;;;3.50;99.90;;;;;;5035510;28;20026;-69
2023/03/02 03:03:49;;;;;;;12.07;5.50;;;3.50;99.90;;;;;;5035847;28;20507;-69
2023/03/02 03:06:22;;;;;;;13.13;5.72;;;3.50;99.90;;;;;;5035793;28;20104;-69
2023/03/02 03:08:51;;;;;;;12.90;5.97;;;3.50;99.90;;;;;;5017527;28;20025;-69
2023/03/02 03:11:22;;;;;;;14.65;6.15;;;3.50;99.90;;;;;;5035342;28;20020;-69
2023/03/02 03:14:10;;;;;;;13.50;5.82;;;3.50;99.90;;;;;;5035386;28;20155;-69
2023/03/02 03:16:37;;;;;;;17.08;6.45;;;3.60;99.90;;;;;;5035329;28;20025;-69
2023/03/02 03:19:20;;;;;;;17.70;6.07;;;3.60;99.90;;;;;;5035467;28;20037;-69
2023/03/02 03:21:49;;;;;;;15.70;5.65;;;3.60;99.90;;;;;;5017392;28;20064;-69
2023/03/02 03:24:14;;;;;;;10.65;5.30;;;3.50;99.90;;;;;;5035433;28;20506;-69
2023/03/02 03:26:40;;;;;;;16.95;6.68;;;3.50;99.90;;;;;;5035114;28;20030;-69
2023/03/02 03:29:06;;;;;;;14.95;6.18;;;3.40;99.90;;;;;;5018092;28;20037;-69
2023/03/02 03:31:31;;;;;;;12.77;5.85;;;3.50;99.90;;;;;;5035016;28;20108;-69
2023/03/02 03:33:59;;;;;;;13.02;5.60;;;3.50;99.90;;;;;;5035208;28;20022;-69
2023/03/02 03:36:27;;;;;;;15.48;6.32;;;3.50;99.90;;;;;;5034914;28;20104;-69
2023/03/02 03:38:53;;;;;;;13.88;5.40;;;3.50;99.90;;;;;;5016962;28;20022;-69
2023/03/02 03:41:18;;;;;;;11.68;5.35;;;3.50;99.90;;;;;;5034809;28;20052;-69
2023/03/02 03:43:44;;;;;;;12.13;5.85;;;3.50;99.90;;;;;;5017265;28;20029;-69
2023/03/02 03:46:10;;;;;;;14.63;6.38;;;3.40;99.90;;;;;;5018138;28;20030;-69
2023/03/02 03:48:35;;;;;;;12.65;5.15;;;3.40;99.90;;;;;;5016759;28;20022;-69
2023/03/02 03:51:01;;;;;;;11.57;5.30;;;3.40;99.90;;;;;;5017355;28;20037;-69
2023/03/02 03:53:26;;;;;;;9.60;4.95;;;3.40;99.90;;;;;;5034784;28;20033;-69
2023/03/02 03:55:52;;;;;;;14.23;6.00;;;3.40;99.90;;;;;;5016862;28;20022;-69
2023/03/02 03:58:18;;;;;;;10.13;4.97;;;3.40;99.90;;;;;;5035008;28;20029;-69
2023/03/02 04:00:46;;;;;;;12.05;5.40;;;3.40;99.90;;;;;;5034652;28;20028;-69
2023/03/02 04:03:14;;;;;;;16.15;5.60;;;3.40;99.90;;;;;;5016823;28;20033;-69
2023/03/02 04:05:40;;;;;;;14.52;6.10;;;3.40;99.90;;;;;;5017616;28;20033;-69
2023/03/02 04:08:06;;;;;;;12.00;5.38;;;3.40;99.90;;;;;;5034544;28;20026;-69
2023/03/02 04:10:33;;;;;;;16.40;5.63;;;3.30;99.90;;;;;;5016515;28;20109;-69
2023/03/02 04:12:58;;;;;;;10.80;5.07;;;3.20;99.90;;;;;;5034247;28;20097;-69
2023/03/02 04:15:24;;;;;;;13.88;5.43;;;3.30;99.90;;;;;;5016845;28;20037;-69
2023/03/02 04:17:50;;;;;;;16.30;5.35;;;3.30;99.90;;;;;;5016267;28;20511;-69
2023/03/02 04:20:16;;;;;;;14.18;5.88;;;3.40;99.90;;;;;;5034177;28;20028;-69
2023/03/02 04:22:44;;;;;;;12.57;5.18;;;3.40;99.90;;;;;;5032862;28;20025;-69
2023/03/02 04:25:11;;;;;;;10.60;5.40;;;3.40;99.90;;;;;;5016845;28;20029;-69
2023/03/02 04:27:37;;;;;;;13.02;5.30;;;3.30;99.90;;;;;;5034495;28;20029;-69
2023/03/02 04:30:03;;;;;;;12.40;6.03;;;3.40;99.90;;;;;;5034416;28;20104;-69
2023/03/02 04:32:29;;;;;;;12.23;5.75;;;3.50;99.90;;;;;;5024681;28;20077;-69
2023/03/02 04:34:54;;;;;;;13.23;5.57;;;3.50;99.90;;;;;;5016592;28;20064;-69
2023/03/02 04:37:20;;;;;;;12.98;5.47;;;3.60;99.90;;;;;;5032473;28;20025;-69
2023/03/02 04:39:49;;;;;;;14.10;5.18;;;3.60;99.90;;;;;;5032637;28;20021;-69
2023/03/02 04:42:16;;;;;;;13.27;5.88;;;3.70;99.90;;;;;;5016076;28;20028;-69
2023/03/02 04:44:42;;;;;;;10.15;4.95;;;3.70;99.90;;;;;;5033721;28;20033;-69
2023/03/02 04:47:09;;;;;;;15.93;5.43;;;3.60;99.90;;;;;;5033080;28;20052;-69
2023/03/02 04:49:34;;;;;;;12.10;4.75;;;3.50;99.90;;;;;;5017695;28;20033;-69
2023/03/02 04:52:00;;;;;;;13.50;4.82;;;3.40;99.90;;;;;;5035798;28;20080;-69
2023/03/02 04:54:26;;;;;;;12.70;5.68;;;3.40;99.90;;;;;;5033575;28;20052;-69
2023/03/02 04:56:52;;;;;;;15.52;5.45;;;3.40;99.90;;;;;;5033593;28;20041;-69
2023/03/02 04:59:21;;;;;;;11.48;4.93;;;3.40;99.90;;;;;;5015970;28;20440;-69
2023/03/02 05:01:47;;;;;;;11.93;5.35;;;3.40;99.90;;;;;;5033512;28;20029;-69
2023/03/02 05:04:13;;;;;;;10.93;5.72;;;3.40;99.90;;;;;;5033019;28;20025;-69
2023/03/02 05:06:39;;;;;;;14.13;5.50;;;3.30;99.90;;;;;;5015945;28;20503;-69
2023/03/02 05:09:05;;;;;;;11.65;4.82;;;3.30;99.90;;;;;;5015573;28;20025;-69
2023/03/02 05:11:30;;;;;;;13.77;5.10;;;3.20;99.90;;;;;;5033436;28;20018;-69
2023/03/02 05:13:59;;;;;;;11.40;5.38;;;3.20;99.90;;;;;;5032427;28;20025;-69
2023/03/02 05:16:27;;;;;;;11.77;5.20;;;3.20;99.90;;;;;;5033775;28;20057;-69
2023/03/02 05:18:53;;;;;;;12.57;5.25;;;3.30;99.90;;;;;;5033794;28;20108;-69
2023/03/02 05:21:19;;;;;;;14.35;5.22;;;3.30;99.90;;;;;;5016158;28;20030;-69
2023/03/02 05:23:45;;;;;;;17.83;5.43;;;3.10;99.90;;;;;;5033287;28;20041;-69
2023/03/02 05:26:11;;;;;;;15.75;5.75;;;3.10;99.90;;;;;;5016672;28;20026;-69
2023/03/02 05:28:37;;;;;;;12.55;5.68;;;3.10;99.90;;;;;;5033118;28;20033;-69
2023/03/02 05:31:02;;;;;;;14.55;5.13;;;2.90;99.90;;;;;;5015499;28;20026;-69
2023/03/02 05:33:28;;;;;;;10.07;5.18;;;2.90;99.90;;;;;;5033080;28;20032;-69
2023/03/02 05:35:54;;;;;;;15.02;4.95;;;3.00;99.90;;;;;;5034112;28;20026;-69
2023/03/02 05:38:20;;;;;;;11.90;5.30;;;3.10;99.90;;;;;;5017657;28;20053;-69
2023/03/02 05:40:46;;;;;;;11.15;5.10;;;3.20;99.90;;;;;;5039370;28;20064;-69
2023/03/02 05:43:17;;;;;;;10.93;4.95;;;3.30;99.90;;;;;;5033123;28;20476;-69
2023/03/02 05:45:43;;;;;;;12.95;5.10;;;3.30;99.90;;;;;;5016316;28;20084;-69
2023/03/02 05:48:11;;;;;;;14.65;5.50;;;3.30;99.90;;;;;;5033148;28;20030;-69
2023/03/02 05:50:36;;;;;;;14.73;5.85;;;3.30;99.90;;;;;;5015604;28;20463;-69
2023/03/02 05:53:02;;;;;;;12.70;5.82;;;3.30;99.90;;;;;;5016141;28;20061;-69
2023/03/02 05:55:28;;;;;;;14.57;6.43;;;3.30;99.90;;;;;;5033112;28;20101;-69
2023/03/02 05:57:54;;;;;;;13.32;5.60;;;3.20;99.90;;;;;;5015264;28;20025;-68
2023/03/02 06:00:20;;;;;;;8.88;4.38;;;3.20;99.90;;;;;;5018620;28;20485;-69
2023/03/02 06:02:45;;;;;;;11.80;5.60;;;3.20;99.90;;;;;;5036699;28;20025;-68
2023/03/02 06:05:17;;;;;;;13.25;5.00;;;3.10;99.90;;;;;;5019361;28;20029;-69
2023/03/02 06:07:43;;;;;;;14.02;6.03;;;3.10;99.90;;;;;;5036557;28;20087;-68
2023/03/02 06:10:10;;;;;;;13.88;5.50;;;3.20;99.90;;;;;;5036726;28;20036;-69
2023/03/02 06:12:37;;;;;;;11.95;5.32;;;3.00;99.90;;;;;;5037009;28;20028;-69
2023/03/02 06:15:04;;;;;;;14.40;5.85;;;3.00;99.90;;;;;;5037660;28;20029;-69
2023/03/02 06:17:30;;;;;;;12.60;5.40;;;3.00;99.90;;;;;;5036673;28;20033;-69
2023/03/02 06:19:56;;;;;;;15.75;5.82;;;3.00;99.90;;;;;;5036962;28;20033;-69
2023/03/02 06:22:21;;;;;;;13.63;5.90;;;3.10;99.90;;;;;;5018653;28;20033;-69
2023/03/02 06:24:47;;;;;;;9.85;5.50;;;3.10;99.90;;;;;;5019136;28;20030;-69
2023/03/02 06:27:13;;;;;;;11.60;5.45;;;3.10;99.90;;;;;;5018651;28;20018;-69
2023/03/02 06:29:39;;;;;;;12.30;5.75;;;3.00;99.90;;;;;;5018432;28;20075;-69
2023/03/02 06:32:05;;;;;;;12.98;5.13;;;3.00;99.90;;;;;;5037009;28;20025;-69
2023/03/02 06:34:30;;;;;;;11.63;5.93;;;3.00;99.90;;;;;;5037632;28;20028;-69
2023/03/02 06:36:56;;;;;;;11.93;5.68;;;3.10;99.90;;;;;;5018497;28;20021;-69
2023/03/02 06:39:22;;;;;;;12.55;5.88;;;3.20;99.90;;;;;;5036307;28;20069;-69
2023/03/02 06:41:48;;;;;;;15.23;6.32;;;3.20;99.90;;;;;;5036682;28;20057;-69
2023/03/02 06:44:15;;;;;;;14.60;6.15;;;3.20;99.90;;;;;;5037883;28;20045;-69
2023/03/02 06:46:42;;;;;;;13.85;6.07;;;3.10;99.90;;;;;;5026930;28;20026;-69
2023/03/02 06:49:08;;;;;;;15.07;5.38;;;3.10;99.90;;;;;;5018256;28;20041;-69
2023/03/02 06:51:34;;;;;;;14.73;5.60;;;3.30;99.90;;;;;;5020025;28;20025;-69
2023/03/02 06:54:00;;;;;;;14.63;6.10;;;3.40;99.90;;;;;;5036401;28;20036;-69
2023/03/02 06:56:26;;;;;;;16.45;7.90;;;3.30;99.90;;;;;;5036277;28;20033;-69
2023/03/02 06:58:51;;;;;;;13.80;6.38;;;3.40;99.90;;;;;;5017876;28;20060;-69
2023/03/02 07:01:17;;;;;;;16.33;7.07;;;3.40;99.90;;;;;;5018674;28;20029;-69
2023/03/02 07:03:43;;;;;;;16.90;6.05;;;3.30;99.90;;;;;;5018131;28;20021;-69
2023/03/02 07:06:11;;;;;;;16.58;6.55;;;3.40;99.90;;;;;;5018357;28;20026;-69
2023/03/02 07:08:36;;;;;;;13.75;6.47;;;3.50;99.90;;;;;;5018102;28;20025;-69
2023/03/02 07:11:08;;;;;;;16.45;6.10;;;3.50;99.90;;;;;;5017093;28;20136;-69
2023/03/02 07:13:33;;;;;;;12.82;5.30;;;3.40;99.90;;;;;;5017611;28;20028;-69
2023/03/02 07:15:59;;;;;;;13.10;6.10;;;3.50;99.90;;;;;;5035576;28;20029;-69
2023/03/02 07:18:24;;;;;;;13.40;5.28;;;3.50;99.90;;;;;;5017530;28;20094;-69
2023/03/02 07:20:50;;;;;;;15.20;5.53;;;3.70;99.90;;;;;;5034547;28;20025;-69
2023/03/02 07:23:15;;;;;;;11.50;5.60;;;3.70;99.90;;;;;;5035198;28;20030;-69
2023/03/02 07:25:41;;;;;;;13.13;6.10;;;3.90;99.90;;;;;;5018000;28;20028;-69
2023/03/02 07:28:06;;;;;;;12.75;5.47;;;3.90;99.90;;;;;;5017313;28;20025;-69
2023/03/02 07:30:32;;;;;;;13.93;6.20;;;4.00;99.90;;;;;;5017260;28;20033;-69
2023/03/02 07:32:57;;;;;;;14.25;5.78;;;4.00;99.90;;;;;;5017308;28;20025;-69
2023/03/02 07:35:23;;;;;;;15.93;6.35;;;4.10;99.90;;;;;;5017233;28;20473;-69
2023/03/02 07:37:51;;;;;;;15.70;6.38;;;4.10;99.90;;;;;;5017196;28;20014;-69
2023/03/02 07:40:16;;;;;;;16.48;6.72;;;4.20;99.90;;;;;;5017367;28;20036;-69
2023/03/02 07:42:42;;;;;;;14.93;6.75;;;4.10;99.90;;;;;;5034413;28;20033;-69
2023/03/02 07:45:09;;;;;;;12.43;6.75;;;4.20;99.90;;;;;;5034773;28;20029;-69
2023/03/02 07:47:34;;;;;;;14.82;5.97;;;4.20;99.90;;;;;;5016917;28;20148;-69
2023/03/02 07:50:00;;;;;;;14.93;5.70;;;4.30;99.90;;;;;;5033436;28;20033;-69
2023/03/02 07:52:28;;;;;;;15.65;6.20;;;4.30;99.90;;;;;;5019587;28;20017;-68
2023/03/02 07:54:53;;;;;;;16.50;6.95;;;4.40;99.90;;;;;;5022238;28;20037;-69
2023/03/02 07:57:19;;;;;;;12.50;5.38;;;4.50;99.90;;;;;;5034780;28;20030;-68
2023/03/02 07:59:44;;;;;;;13.55;5.70;;;4.50;99.90;;;;;;5034723;28;20036;-69
2023/03/02 08:02:13;;;;;;;12.77;6.38;;;4.50;99.90;;;;;;5016826;28;20021;-69
2023/03/02 08:04:39;;;;;;;15.85;7.05;;;4.60;99.90;;;;;;5017180;28;20018;-68
2023/03/02 08:07:04;;;;;;;16.48;6.07;;;4.70;99.90;;;;;;5016945;28;20028;-68
2023/03/02 08:09:30;;;;;;;17.58;5.57;;;4.80;99.90;;;;;;5034140;28;20124;-68
2023/03/02 08:11:55;;;;;;;30.67;7.35;;;4.90;99.90;;;;;;5033325;28;20022;-69
2023/03/02 08:14:21;;;;;;;18.83;6.60;;;4.90;99.90;;;;;;5032956;28;20071;-69
2023/03/02 08:16:47;;;;;;;15.48;6.70;;;5.00;99.90;;;;;;5034448;28;20019;-69
2023/03/02 08:19:12;;;;;;;14.30;6.00;;;5.00;99.90;;;;;;5034157;28;20038;-69
2023/03/02 08:21:38;;;;;;;12.85;5.57;;;5.10;99.90;;;;;;5034069;28;20030;-69
2023/03/02 08:24:04;;;;;;;12.15;5.95;;;5.10;99.90;;;;;;5015988;28;20052;-69
2023/03/02 08:26:30;;;;;;;16.35;6.03;;;5.20;99.90;;;;;;5016251;28;20025;-69
2023/03/02 08:28:55;;;;;;;14.57;6.47;;;5.20;99.90;;;;;;5034072;28;20029;-69
2023/03/02 08:31:21;;;;;;;13.63;6.35;;;5.30;99.90;;;;;;5016434;28;20527;-69
2023/03/02 08:33:47;;;;;;;14.25;5.57;;;5.40;99.90;;;;;;5016997;28;20022;-69
2023/03/02 08:36:15;;;;;;;14.68;6.10;;;5.50;99.90;;;;;;5033882;28;20033;-69
2023/03/02 08:38:41;;;;;;;18.92;5.95;;;5.40;99.90;;;;;;5015973;28;20473;-69
2023/03/02 08:41:10;;;;;;;13.48;6.93;;;5.40;99.90;;;;;;5033735;28;20017;-69
2023/03/02 08:43:36;;;;;;;14.43;6.20;;;5.50;99.90;;;;;;5033710;28;20048;-69
2023/03/02 08:46:02;;;;;;;14.70;6.47;;;5.40;99.90;;;;;;5016303;28;20025;-69
2023/03/02 08:48:28;;;;;;;19.00;6.63;;;5.50;99.90;;;;;;5033775;28;20029;-69
2023/03/02 08:51:05;;;;;;;14.43;6.05;;;5.50;99.90;;;;;;5015905;28;20163;-69
2023/03/02 08:53:34;;;;;;;16.20;6.60;;;5.70;99.90;;;;;;5033660;28;20018;-69
2023/03/02 08:56:00;;;;;;;16.20;6.20;;;5.80;99.90;;;;;;5015894;28;20045;-69
2023/03/02 08:58:26;;;;;;;18.13;6.40;;;5.90;99.90;;;;;;5033725;28;20469;-69
2023/03/02 09:00:51;;;;;;;12.43;6.30;;;6.00;99.90;;;;;;5036154;28;20041;-69
2023/03/02 09:03:17;;;;;;;15.35;6.75;;;6.00;99.80;;;;;;5016249;28;20021;-69
2023/03/02 09:05:43;;;;;;;17.98;6.00;;;6.10;99.50;;;;;;5033938;28;20044;-69
2023/03/02 09:08:09;;;;;;;20.27;5.90;;;6.10;98.90;;;;;;5032022;28;20025;-69
2023/03/02 09:10:35;;;;;;;12.02;5.20;;;6.20;99.30;;;;;;5015731;28;20029;-69
2023/03/02 09:13:00;;;;;;;17.08;6.22;;;6.30;98.60;;;;;;5015809;28;20026;-69
2023/03/02 09:15:26;;;;;;;12.55;5.85;;;6.30;98.30;;;;;;5016376;28;20480;-70
2023/03/02 09:17:52;;;;;;;18.38;5.82;;;6.40;97.60;;;;;;5015640;28;20044;-69
2023/03/02 09:20:18;;;;;;;13.75;6.30;;;6.40;98.60;;;;;;5033790;28;20034;-69
2023/03/02 09:22:47;;;;;;;13.68;5.50;;;6.50;98.50;;;;;;5016257;28;20090;-69
2023/03/02 09:25:13;;;;;;;11.93;5.53;;;6.60;97.30;;;;;;5016322;28;20107;-70
2023/03/02 09:27:39;;;;;;;13.40;6.18;;;6.80;98.00;;;;;;5033142;28;20057;-69
2023/03/02 09:30:05;;;;;;;12.43;5.68;;;6.90;97.60;;;;;;5015572;28;20026;-70
2023/03/02 09:32:30;;;;;;;15.10;6.18;;;7.00;97.30;;;;;;5033756;28;20028;-69
2023/03/02 09:34:56;;;;;;;13.93;5.75;;;7.10;97.20;;;;;;5036048;28;20027;-69
2023/03/02 09:37:22;;;;;;;12.60;5.32;;;7.20;97.30;;;;;;5019340;28;20025;-69
2023/03/02 09:39:47;;;;;;;12.57;5.13;;;7.20;97.80;;;;;;5037401;28;20036;-69
2023/03/02 09:42:22;;;;;;;17.95;6.13;;;7.30;96.10;;;;;;5019710;28;20041;-69
2023/03/02 09:45:19;;;;;;;13.18;5.35;;;7.30;95.40;;;;;;5019334;28;20025;-69
2023/03/02 09:48:15;;;;;;;12.57;5.97;;;7.50;96.60;;;;;;5037287;28;20029;-69
2023/03/02 09:50:52;;;;;;;17.13;6.07;;;7.60;96.60;;;;;;5036921;28;20026;-69
2023/03/02 09:53:34;;;;;;;11.93;5.72;;;7.80;94.40;;;;;;5019201;28;20477;-69
2023/03/02 09:56:00;;;;;;;11.68;5.78;;;7.80;94.80;;;;;;5036826;28;20067;-69
2023/03/02 09:58:32;;;;;;;12.65;5.70;;;7.90;94.10;;;;;;5019070;28;20125;-69
2023/03/02 10:01:01;;;;;;;13.15;5.65;;;8.00;95.30;;;;;;5037008;28;20029;-69
2023/03/02 10:03:35;;;;;;;13.35;5.70;;;8.10;94.30;;;;;;5036734;28;20028;-69
2023/03/02 10:06:00;;;;;;;12.57;5.93;;;8.00;93.80;;;;;;5036824;28;20096;-69
2023/03/02 10:08:29;;;;;;;16.92;5.93;;;8.10;92.90;;;;;;5037557;28;20103;-69
2023/03/02 10:11:17;;;;;;;16.40;6.20;;;8.20;92.60;;;;;;5036985;28;20029;-69
2023/03/02 10:14:02;;;;;;;15.93;5.72;;;8.30;93.80;;;;;;5036706;28;20202;-69
2023/03/02 10:16:36;;;;;;;13.10;5.82;;;8.40;92.80;;;;;;5019325;28;20017;-68
2023/03/02 10:19:06;;;;;;;15.30;6.55;;;8.60;93.10;;;;;;5018668;28;20025;-68
2023/03/02 10:21:46;;;;;;;10.00;5.93;;;8.80;92.90;;;;;;5036613;28;20100;-69
2023/03/02 10:24:37;;;;;;;12.52;5.78;;;8.90;92.30;;;;;;5036624;28;20025;-69
2023/03/02 10:27:25;;;;;;;16.13;6.50;;;9.10;93.50;;;;;;5018853;28;20076;-69
2023/03/02 10:30:15;;;;;;;8.88;4.65;;;9.20;91.50;;;;;;5036286;28;20051;-68
2023/03/02 10:32:50;;;;;;;12.00;6.15;;;9.20;91.50;;;;;;5036259;28;20028;-67
2023/03/02 10:35:24;;;;;;;13.75;5.45;;;9.40;91.80;;;;;;5018348;28;20085;-68
2023/03/02 10:37:55;;;;;;;10.88;5.38;;;9.40;89.10;;;;;;5036180;28;20071;-68
2023/03/02 10:40:47;;;;;;;8.80;4.95;;;9.50;91.70;;;;;;5018574;28;20116;-68
2023/03/02 10:43:34;;;;;;;9.85;4.57;;;9.80;91.40;;;;;;5018706;28;20056;-68
2023/03/02 10:46:01;;;;;;;14.25;5.88;;;10.00;90.30;;;;;;5017616;28;20035;-68
2023/03/02 10:48:26;;;;;;;14.50;6.70;;;10.00;90.80;;;;;;5018885;28;20029;-68
2023/03/02 10:50:58;;;;;;;14.60;5.63;;;10.00;90.30;;;;;;5035774;28;20108;-68
2023/03/02 10:53:23;;;;;;;17.30;6.15;;;10.10;90.60;;;;;;5036009;28;20024;-68
2023/03/02 10:55:52;;;;;;;11.38;5.45;;;10.20;86.30;;;;;;5018102;28;20116;-68
2023/03/02 10:58:31;;;;;;;18.35;6.30;;;10.30;88.40;;;;;;5018624;28;20074;-68
2023/03/02 11:01:02;;;;;;;13.82;5.75;;;10.50;85.20;;;;;;5036007;28;20108;-68
2023/03/02 11:03:29;;;;;;;14.90;6.28;;;10.70;90.00;;;;;;5036069;28;20028;-68
2023/03/02 11:05:56;;;;;;;11.45;5.57;;;10.80;86.60;;;;;;5035917;28;20029;-68
2023/03/02 11:08:24;;;;;;;9.55;5.22;;;10.90;86.40;;;;;;5035476;28;20021;-68
2023/03/02 11:11:02;;;;;;;12.18;5.13;;;11.00;86.90;;;;;;5018170;28;20025;-68
2023/03/02 11:13:33;;;;;;;9.23;4.60;;;11.00;83.00;;;;;;5036293;28;20022;-68
2023/03/02 11:16:01;;;;;;;13.05;5.60;;;11.00;80.60;;;;;;5035888;28;20029;-68
2023/03/02 11:18:33;;;;;;;8.63;4.65;;;11.00;81.40;;;;;;5035313;28;20037;-68
2023/03/02 11:21:05;;;;;;;11.32;5.50;;;11.00;81.70;;;;;;5035476;28;20021;-68
2023/03/02 11:23:35;;;;;;;10.82;5.00;;;11.00;83.40;;;;;;5017542;28;20030;-68
2023/03/02 11:26:37;;;;;;;11.55;5.15;;;11.10;82.00;;;;;;5035248;28;20088;-68
2023/03/02 11:29:31;;;;;;;11.05;5.10;;;11.30;79.00;;;;;;4974130;28;20079;-68
2023/03/02 11:32:21;;;;;;;10.40;5.65;;;11.50;80.80;;;;;;4964101;28;20031;-68
2023/03/02 11:34:56;;;;;;;10.90;5.47;;;11.50;80.10;;;;;;4974186;28;20032;-68
2023/03/02 11:37:44;;;;;;;10.98;5.35;;;11.60;76.30;;;;;;4974108;28;20105;-68
2023/03/02 11:40:30;;;;;;;10.13;5.10;;;11.80;78.50;;;;;;4957817;28;20038;-68
2023/03/02 11:42:58;;;;;;;12.82;5.85;;;12.10;77.90;;;;;;4958005;28;20034;-68
2023/03/02 11:45:29;;;;;;;11.32;5.13;;;12.20;77.10;;;;;;4957772;28;20061;-68
2023/03/02 11:48:21;;;;;;;10.65;5.30;;;12.30;79.00;;;;;;4957910;28;20039;-68
2023/03/02 11:50:57;;;;;;;11.98;5.20;;;12.50;77.30;;;;;;4957784;28;20035;-68
2023/03/02 11:53:30;;;;;;;13.80;5.57;;;12.50;76.20;;;;;;4973880;28;20038;-68
2023/03/02 11:55:55;;;;;;;15.10;5.80;;;12.60;76.80;;;;;;4957590;28;20034;-68
2023/03/02 11:58:25;;;;;;;15.90;5.53;;;12.70;77.90;;;;;;4973534;28;20031;-68
2023/03/02 12:00:52;;;;;;;10.68;5.30;;;12.80;77.80;;;;;;4973713;28;20094;-68
2023/03/02 12:03:31;;;;;;;11.02;5.57;;;12.80;76.60;;;;;;5011803;28;20037;-68
2023/03/02 12:06:26;;;;;;;8.85;5.05;;;13.00;80.00;;;;;;5034965;28;20063;-69
2023/03/02 12:09:05;;;;;;;9.27;4.90;;;13.30;79.50;;;;;;5032184;28;20041;-69
2023/03/02 12:11:37;;;;;;;12.15;5.57;;;13.20;76.30;;;;;;5017456;28;20028;-69
2023/03/02 12:14:24;;;;;;;16.70;5.93;;;13.20;75.00;;;;;;5016581;28;20499;-69
2023/03/02 12:16:50;;;;;;;12.63;5.53;;;13.40;75.70;;;;;;5034282;28;20091;-69
2023/03/02 12:19:15;;;;;;;12.82;5.05;;;13.10;72.90;;;;;;5016677;28;20405;-68
2023/03/02 12:21:54;;;;;;;10.65;5.70;;;13.20;75.60;;;;;;5035204;28;20033;-68
2023/03/02 12:24:26;;;;;;;10.88;5.07;;;13.40;76.40;;;;;;5017714;28;20030;-68
2023/03/02 12:27:10;;;;;;;;;;;13.70;75.50;;;;;;5016995;28;20034;-68
2023/03/02 12:30:03;;;;;;;13.77;5.40;;;13.80;78.60;;;;;;5033908;28;19935;-68
2023/03/02 12:32:30;;;;;;;11.82;6.10;;;14.00;74.50;;;;;;5024257;28;20029;-69
2023/03/02 12:35:02;;;;;;;12.02;5.00;;;13.90;74.10;;;;;;5017496;28;20026;-69
2023/03/02 12:37:55;;;;;;;12.23;5.35;;;14.10;76.40;;;;;;5017087;28;20022;-69
2023/03/02 12:41:06;;;;;;;12.68;5.35;;;14.30;77.90;;;;;;5016546;28;20027;-69
2023/03/02 12:43:37;;;;;;;10.50;5.93;;;14.40;73.80;;;;;;5016257;28;20029;-69
2023/03/02 12:46:35;;;;;;;14.05;6.47;;;14.30;73.30;;;;;;5033758;28;20091;-69
2023/03/02 12:49:14;;;;;;;13.10;6.28;;;14.30;75.40;;;;;;5016791;28;20022;-69
2023/03/02 12:52:04;;;;;;;11.60;5.32;;;14.30;75.10;;;;;;5033767;28;20100;-69
2023/03/02 12:54:32;;;;;;;10.45;5.55;;;14.30;71.90;;;;;;5033593;28;20060;-69
2023/03/02 12:57:15;;;;;;;11.38;5.97;;;14.50;72.00;;;;;;5033611;28;20028;-69
2023/03/02 12:59:41;;;;;;;9.35;5.13;;;14.30;73.50;;;;;;5033927;28;20032;-69
2023/03/02 13:02:19;;;;;;;11.73;5.90;;;14.60;76.00;;;;;;5034086;28;20057;-69